sensor_id;sensor_type;location;lat;lon;timestamp;temperature;humidity
56725;DHT22;42608;52.776;6.968;2023-07-08T00:02:09;18.50;99.90
56725;DHT22;42608;52.776;6.968;2023-07-08T00:04:36;18.50;99.90
56725;DHT22;42608;52.776;6.968;2023-07-08T00:07:01;18.40;99.90
56725;DHT22;42608;52.776;6.968;2023-07-08T00:09:27;18.30;99.90
56725;DHT22;42608;52.776;6.968;2023-07-08T00:11:52;18.30;99.90
56725;DHT22;42608;52.776;6.968;2023-07-08T00:14:18;18.30;99.90
56725;DHT22;42608;52.776;6.968;2023-07-08T00:16:44;18.30;99.90
56725;DHT22;42608;52.776;6.968;2023-07-08T00:19:10;18.30;99.90
56725;DHT22;42608;52.776;6.968;2023-07-08T00:21:36;18.20;99.90
56725;DHT22;42608;52.776;6.968;2023-07-08T00:24:01;18.20;99.90
56725;DHT22;42608;52.776;6.968;2023-07-08T00:26:28;18.20;99.90
56725;DHT22;42608;52.776;6.968;2023-07-08T00:28:55;18.20;99.90
56725;DHT22;42608;52.776;6.968;2023-07-08T00:31:21;18.20;99.90
56725;DHT22;42608;52.776;6.968;2023-07-08T00:33:52;18.20;99.90
56725;DHT22;42608;52.776;6.968;2023-07-08T00:36:20;18.20;99.90
56725;DHT22;42608;52.776;6.968;2023-07-08T00:38:46;18.20;99.90
56725;DHT22;42608;52.776;6.968;2023-07-08T00:41:14;18.10;99.90
56725;DHT22;42608;52.776;6.968;2023-07-08T00:43:46;18.10;99.90
56725;DHT22;42608;52.776;6.968;2023-07-08T00:51:25;18.00;99.90
56725;DHT22;42608;52.776;6.968;2023-07-08T00:53:51;18.00;99.90
56725;DHT22;42608;52.776;6.968;2023-07-08T00:56:29;17.90;99.90
56725;DHT22;42608;52.776;6.968;2023-07-08T01:01:21;17.70;99.90
56725;DHT22;42608;52.776;6.968;2023-07-08T01:03:58;17.70;99.90
56725;DHT22;42608;52.776;6.968;2023-07-08T01:06:26;17.70;99.90
56725;DHT22;42608;52.776;6.968;2023-07-08T01:08:57;17.60;99.90
56725;DHT22;42608;52.776;6.968;2023-07-08T01:11:23;17.60;99.90
56725;DHT22;42608;52.776;6.968;2023-07-08T01:13:49;17.50;99.90
56725;DHT22;42608;52.776;6.968;2023-07-08T01:16:16;17.50;99.90
56725;DHT22;42608;52.776;6.968;2023-07-08T01:18:41;17.40;99.90
56725;DHT22;42608;52.776;6.968;2023-07-08T01:23:52;17.20;99.90
56725;DHT22;42608;52.776;6.968;2023-07-08T01:26:18;17.10;99.90
56725;DHT22;42608;52.776;6.968;2023-07-08T01:28:43;17.10;99.90
56725;DHT22;42608;52.776;6.968;2023-07-08T01:31:10;17.00;99.90
56725;DHT22;42608;52.776;6.968;2023-07-08T01:33:36;17.00;99.90
56725;DHT22;42608;52.776;6.968;2023-07-08T01:36:01;17.00;99.90
56725;DHT22;42608;52.776;6.968;2023-07-08T01:38:27;16.90;99.90
56725;DHT22;42608;52.776;6.968;2023-07-08T01:40:59;16.80;99.90
56725;DHT22;42608;52.776;6.968;2023-07-08T01:43:25;16.80;99.90
56725;DHT22;42608;52.776;6.968;2023-07-08T01:45:51;16.80;99.90
56725;DHT22;42608;52.776;6.968;2023-07-08T01:48:18;16.80;99.90
56725;DHT22;42608;52.776;6.968;2023-07-08T01:50:54;16.80;99.90
56725;DHT22;42608;52.776;6.968;2023-07-08T01:53:28;16.80;99.90
56725;DHT22;42608;52.776;6.968;2023-07-08T01:55:53;16.80;99.90
56725;DHT22;42608;52.776;6.968;2023-07-08T01:58:19;16.80;99.90
56725;DHT22;42608;52.776;6.968;2023-07-08T02:00:45;16.80;99.90
56725;DHT22;42608;52.776;6.968;2023-07-08T02:03:14;16.80;99.90
56725;DHT22;42608;52.776;6.968;2023-07-08T02:05:39;16.80;99.90
56725;DHT22;42608;52.776;6.968;2023-07-08T02:08:05;16.70;99.90
56725;DHT22;42608;52.776;6.968;2023-07-08T02:10:30;16.70;99.90
56725;DHT22;42608;52.776;6.968;2023-07-08T02:12:56;16.60;99.90
56725;DHT22;42608;52.776;6.968;2023-07-08T02:15:22;16.60;99.90
56725;DHT22;42608;52.776;6.968;2023-07-08T02:17:47;16.60;99.90
56725;DHT22;42608;52.776;6.968;2023-07-08T02:20:14;16.60;99.90
56725;DHT22;42608;52.776;6.968;2023-07-08T02:22:40;16.60;99.90
56725;DHT22;42608;52.776;6.968;2023-07-08T02:25:05;16.60;99.90
56725;DHT22;42608;52.776;6.968;2023-07-08T02:27:31;16.50;99.90
56725;DHT22;42608;52.776;6.968;2023-07-08T02:29:57;16.50;99.90
56725;DHT22;42608;52.776;6.968;2023-07-08T02:32:22;16.50;99.90
56725;DHT22;42608;52.776;6.968;2023-07-08T02:34:48;16.40;99.90
56725;DHT22;42608;52.776;6.968;2023-07-08T02:37:13;16.40;99.90
56725;DHT22;42608;52.776;6.968;2023-07-08T02:39:41;16.40;99.90
56725;DHT22;42608;52.776;6.968;2023-07-08T02:42:07;16.30;99.90
56725;DHT22;42608;52.776;6.968;2023-07-08T02:44:33;16.30;99.90
56725;DHT22;42608;52.776;6.968;2023-07-08T02:46:58;16.30;99.90
56725;DHT22;42608;52.776;6.968;2023-07-08T02:49:24;16.30;99.90
56725;DHT22;42608;52.776;6.968;2023-07-08T02:51:49;16.30;99.90
56725;DHT22;42608;52.776;6.968;2023-07-08T02:54:15;16.20;99.90
56725;DHT22;42608;52.776;6.968;2023-07-08T02:56:40;16.20;99.90
56725;DHT22;42608;52.776;6.968;2023-07-08T02:59:06;16.20;99.90
56725;DHT22;42608;52.776;6.968;2023-07-08T03:01:32;16.20;99.90
56725;DHT22;42608;52.776;6.968;2023-07-08T03:04:13;16.20;99.90
56725;DHT22;42608;52.776;6.968;2023-07-08T03:06:42;16.20;99.90
56725;DHT22;42608;52.776;6.968;2023-07-08T03:09:08;16.10;99.90
56725;DHT22;42608;52.776;6.968;2023-07-08T03:11:34;16.10;99.90
56725;DHT22;42608;52.776;6.968;2023-07-08T03:13:59;16.20;99.90
56725;DHT22;42608;52.776;6.968;2023-07-08T03:16:25;16.10;99.90
56725;DHT22;42608;52.776;6.968;2023-07-08T03:18:50;16.10;99.90
56725;DHT22;42608;52.776;6.968;2023-07-08T03:21:16;16.10;99.90
56725;DHT22;42608;52.776;6.968;2023-07-08T03:23:43;16.10;99.90
56725;DHT22;42608;52.776;6.968;2023-07-08T03:26:13;16.10;99.90
56725;DHT22;42608;52.776;6.968;2023-07-08T03:28:39;16.10;99.90
56725;DHT22;42608;52.776;6.968;2023-07-08T03:31:04;16.10;99.90
56725;DHT22;42608;52.776;6.968;2023-07-08T03:33:30;16.00;99.90
56725;DHT22;42608;52.776;6.968;2023-07-08T03:35:55;16.00;99.90
56725;DHT22;42608;52.776;6.968;2023-07-08T03:38:21;16.00;99.90
56725;DHT22;42608;52.776;6.968;2023-07-08T03:40:46;15.90;99.90
56725;DHT22;42608;52.776;6.968;2023-07-08T03:43:12;15.90;99.90
56725;DHT22;42608;52.776;6.968;2023-07-08T03:45:37;15.90;99.90
56725;DHT22;42608;52.776;6.968;2023-07-08T03:48:03;15.80;99.90
56725;DHT22;42608;52.776;6.968;2023-07-08T03:50:29;15.80;99.90
56725;DHT22;42608;52.776;6.968;2023-07-08T03:52:54;15.80;99.90
56725;DHT22;42608;52.776;6.968;2023-07-08T03:55:21;15.80;99.90
56725;DHT22;42608;52.776;6.968;2023-07-08T03:57:46;15.80;99.90
56725;DHT22;42608;52.776;6.968;2023-07-08T04:00:12;15.80;99.90
56725;DHT22;42608;52.776;6.968;2023-07-08T04:02:38;15.70;99.90
56725;DHT22;42608;52.776;6.968;2023-07-08T04:05:05;15.80;99.90
56725;DHT22;42608;52.776;6.968;2023-07-08T04:07:31;15.80;99.90
56725;DHT22;42608;52.776;6.968;2023-07-08T04:09:59;15.80;99.90
56725;DHT22;42608;52.776;6.968;2023-07-08T04:12:24;15.80;99.90
56725;DHT22;42608;52.776;6.968;2023-07-08T04:14:50;15.80;99.90
56725;DHT22;42608;52.776;6.968;2023-07-08T04:17:16;15.90;99.90
56725;DHT22;42608;52.776;6.968;2023-07-08T04:19:43;15.90;99.90
56725;DHT22;42608;52.776;6.968;2023-07-08T04:22:09;15.90;99.90
56725;DHT22;42608;52.776;6.968;2023-07-08T04:24:35;15.90;99.90
56725;DHT22;42608;52.776;6.968;2023-07-08T04:27:00;15.90;99.90
56725;DHT22;42608;52.776;6.968;2023-07-08T04:29:26;16.00;99.90
56725;DHT22;42608;52.776;6.968;2023-07-08T04:31:52;16.00;99.90
56725;DHT22;42608;52.776;6.968;2023-07-08T04:34:17;16.10;99.90
56725;DHT22;42608;52.776;6.968;2023-07-08T04:36:43;16.10;99.90
56725;DHT22;42608;52.776;6.968;2023-07-08T04:39:09;16.10;99.90
56725;DHT22;42608;52.776;6.968;2023-07-08T04:41:36;16.10;99.90
56725;DHT22;42608;52.776;6.968;2023-07-08T04:44:14;16.20;99.90
56725;DHT22;42608;52.776;6.968;2023-07-08T04:49:10;16.30;99.90
56725;DHT22;42608;52.776;6.968;2023-07-08T04:51:36;16.30;99.90
56725;DHT22;42608;52.776;6.968;2023-07-08T04:54:01;16.40;99.90
56725;DHT22;42608;52.776;6.968;2023-07-08T04:59:21;16.50;99.90
56725;DHT22;42608;52.776;6.968;2023-07-08T05:01:46;16.50;99.90
56725;DHT22;42608;52.776;6.968;2023-07-08T05:04:13;16.60;99.90
56725;DHT22;42608;52.776;6.968;2023-07-08T05:06:38;16.60;99.90
56725;DHT22;42608;52.776;6.968;2023-07-08T05:09:04;16.70;99.90
56725;DHT22;42608;52.776;6.968;2023-07-08T05:11:30;16.70;99.90
56725;DHT22;42608;52.776;6.968;2023-07-08T05:13:56;16.80;99.90
56725;DHT22;42608;52.776;6.968;2023-07-08T05:16:22;16.90;99.90
56725;DHT22;42608;52.776;6.968;2023-07-08T05:18:47;16.90;99.90
56725;DHT22;42608;52.776;6.968;2023-07-08T05:21:13;17.00;99.90
56725;DHT22;42608;52.776;6.968;2023-07-08T05:23:38;17.00;99.90
56725;DHT22;42608;52.776;6.968;2023-07-08T05:26:05;17.10;99.90
56725;DHT22;42608;52.776;6.968;2023-07-08T05:28:30;17.20;99.90
56725;DHT22;42608;52.776;6.968;2023-07-08T05:30:56;17.30;99.90
56725;DHT22;42608;52.776;6.968;2023-07-08T05:33:26;17.40;99.90
56725;DHT22;42608;52.776;6.968;2023-07-08T05:35:52;17.50;99.90
56725;DHT22;42608;52.776;6.968;2023-07-08T05:38:18;17.50;99.90
56725;DHT22;42608;52.776;6.968;2023-07-08T05:40:47;17.60;99.90
56725;DHT22;42608;52.776;6.968;2023-07-08T05:43:15;17.70;99.90
56725;DHT22;42608;52.776;6.968;2023-07-08T05:45:41;17.70;99.90
56725;DHT22;42608;52.776;6.968;2023-07-08T05:48:06;17.80;99.90
56725;DHT22;42608;52.776;6.968;2023-07-08T05:50:32;17.90;99.90
56725;DHT22;42608;52.776;6.968;2023-07-08T05:53:00;18.00;99.90
56725;DHT22;42608;52.776;6.968;2023-07-08T05:55:29;18.00;99.90
56725;DHT22;42608;52.776;6.968;2023-07-08T05:57:54;18.10;99.90
56725;DHT22;42608;52.776;6.968;2023-07-08T06:00:20;18.20;99.90
56725;DHT22;42608;52.776;6.968;2023-07-08T06:02:45;18.30;99.90
56725;DHT22;42608;52.776;6.968;2023-07-08T06:05:14;18.40;99.90
56725;DHT22;42608;52.776;6.968;2023-07-08T06:07:40;18.50;99.90
56725;DHT22;42608;52.776;6.968;2023-07-08T06:10:05;18.60;99.90
56725;DHT22;42608;52.776;6.968;2023-07-08T06:12:31;18.70;99.90
56725;DHT22;42608;52.776;6.968;2023-07-08T06:14:57;18.70;99.90
56725;DHT22;42608;52.776;6.968;2023-07-08T06:17:22;18.80;99.90
56725;DHT22;42608;52.776;6.968;2023-07-08T06:19:48;18.90;99.90
56725;DHT22;42608;52.776;6.968;2023-07-08T06:22:13;19.00;99.90
56725;DHT22;42608;52.776;6.968;2023-07-08T06:24:39;19.10;99.90
56725;DHT22;42608;52.776;6.968;2023-07-08T06:27:05;19.10;99.90
56725;DHT22;42608;52.776;6.968;2023-07-08T06:29:30;19.20;99.90
56725;DHT22;42608;52.776;6.968;2023-07-08T06:31:56;19.30;99.90
56725;DHT22;42608;52.776;6.968;2023-07-08T06:34:22;19.40;99.90
56725;DHT22;42608;52.776;6.968;2023-07-08T06:36:49;19.50;99.90
56725;DHT22;42608;52.776;6.968;2023-07-08T06:39:15;19.50;99.90
56725;DHT22;42608;52.776;6.968;2023-07-08T06:41:42;19.60;99.90
56725;DHT22;42608;52.776;6.968;2023-07-08T06:44:07;19.70;99.90
56725;DHT22;42608;52.776;6.968;2023-07-08T06:46:33;19.70;99.90
56725;DHT22;42608;52.776;6.968;2023-07-08T06:49:02;19.80;99.90
56725;DHT22;42608;52.776;6.968;2023-07-08T06:51:28;19.90;99.90
56725;DHT22;42608;52.776;6.968;2023-07-08T06:53:53;20.00;99.90
56725;DHT22;42608;52.776;6.968;2023-07-08T06:56:19;20.10;99.90
56725;DHT22;42608;52.776;6.968;2023-07-08T06:58:45;20.20;99.90
56725;DHT22;42608;52.776;6.968;2023-07-08T07:01:10;20.20;99.90
56725;DHT22;42608;52.776;6.968;2023-07-08T07:03:36;20.30;99.90
56725;DHT22;42608;52.776;6.968;2023-07-08T07:06:01;20.40;99.90
56725;DHT22;42608;52.776;6.968;2023-07-08T07:08:27;20.40;99.90
56725;DHT22;42608;52.776;6.968;2023-07-08T07:10:53;20.50;99.90
56725;DHT22;42608;52.776;6.968;2023-07-08T07:13:18;20.60;99.90
56725;DHT22;42608;52.776;6.968;2023-07-08T07:15:44;20.80;99.90
56725;DHT22;42608;52.776;6.968;2023-07-08T07:18:09;20.80;99.90
56725;DHT22;42608;52.776;6.968;2023-07-08T07:20:36;20.90;99.90
56725;DHT22;42608;52.776;6.968;2023-07-08T07:23:02;20.90;99.90
56725;DHT22;42608;52.776;6.968;2023-07-08T07:25:27;21.00;99.90
56725;DHT22;42608;52.776;6.968;2023-07-08T07:27:53;21.10;99.90
56725;DHT22;42608;52.776;6.968;2023-07-08T07:30:19;21.20;99.90
56725;DHT22;42608;52.776;6.968;2023-07-08T07:32:44;21.20;99.90
56725;DHT22;42608;52.776;6.968;2023-07-08T07:35:10;21.30;99.90
56725;DHT22;42608;52.776;6.968;2023-07-08T07:37:41;21.40;99.90
56725;DHT22;42608;52.776;6.968;2023-07-08T07:40:10;21.40;99.90
56725;DHT22;42608;52.776;6.968;2023-07-08T07:42:41;21.50;99.90
56725;DHT22;42608;52.776;6.968;2023-07-08T07:45:10;21.60;99.90
56725;DHT22;42608;52.776;6.968;2023-07-08T07:47:36;21.70;99.90
56725;DHT22;42608;52.776;6.968;2023-07-08T07:50:02;21.70;99.90
56725;DHT22;42608;52.776;6.968;2023-07-08T07:52:28;21.80;99.90
56725;DHT22;42608;52.776;6.968;2023-07-08T07:54:56;21.90;99.90
56725;DHT22;42608;52.776;6.968;2023-07-08T07:57:22;21.90;99.90
56725;DHT22;42608;52.776;6.968;2023-07-08T07:59:48;22.00;99.90
56725;DHT22;42608;52.776;6.968;2023-07-08T08:02:14;22.10;99.90
56725;DHT22;42608;52.776;6.968;2023-07-08T08:04:40;22.20;99.90
56725;DHT22;42608;52.776;6.968;2023-07-08T08:07:05;22.30;99.90
56725;DHT22;42608;52.776;6.968;2023-07-08T08:09:35;22.40;99.90
56725;DHT22;42608;52.776;6.968;2023-07-08T08:12:04;22.40;99.90
56725;DHT22;42608;52.776;6.968;2023-07-08T08:14:30;22.40;99.90
56725;DHT22;42608;52.776;6.968;2023-07-08T08:16:55;22.50;99.90
56725;DHT22;42608;52.776;6.968;2023-07-08T08:19:21;22.60;99.90
56725;DHT22;42608;52.776;6.968;2023-07-08T08:21:47;22.70;99.90
56725;DHT22;42608;52.776;6.968;2023-07-08T08:24:13;22.80;99.90
56725;DHT22;42608;52.776;6.968;2023-07-08T08:26:39;22.80;99.90
56725;DHT22;42608;52.776;6.968;2023-07-08T08:29:04;22.90;99.90
56725;DHT22;42608;52.776;6.968;2023-07-08T08:31:30;22.90;99.90
56725;DHT22;42608;52.776;6.968;2023-07-08T08:33:56;23.00;99.90
56725;DHT22;42608;52.776;6.968;2023-07-08T08:36:22;23.10;99.90
56725;DHT22;42608;52.776;6.968;2023-07-08T08:38:48;23.10;99.90
56725;DHT22;42608;52.776;6.968;2023-07-08T08:41:21;23.20;99.90
56725;DHT22;42608;52.776;6.968;2023-07-08T08:43:53;23.30;99.90
56725;DHT22;42608;52.776;6.968;2023-07-08T08:51:16;23.50;99.90
56725;DHT22;42608;52.776;6.968;2023-07-08T08:53:41;23.60;99.90
56725;DHT22;42608;52.776;6.968;2023-07-08T08:56:15;23.60;99.90
56725;DHT22;42608;52.776;6.968;2023-07-08T08:58:45;23.70;99.90
56725;DHT22;42608;52.776;6.968;2023-07-08T09:01:14;23.80;99.90
56725;DHT22;42608;52.776;6.968;2023-07-08T09:03:59;23.90;99.90
56725;DHT22;42608;52.776;6.968;2023-07-08T09:06:27;24.00;99.90
56725;DHT22;42608;52.776;6.968;2023-07-08T09:08:53;24.00;99.90
56725;DHT22;42608;52.776;6.968;2023-07-08T09:11:27;24.10;99.90
56725;DHT22;42608;52.776;6.968;2023-07-08T09:13:58;24.20;99.90
56725;DHT22;42608;52.776;6.968;2023-07-08T09:19:28;24.30;99.90
56725;DHT22;42608;52.776;6.968;2023-07-08T09:22:00;24.40;99.90
56725;DHT22;42608;52.776;6.968;2023-07-08T09:24:29;24.50;99.90
56725;DHT22;42608;52.776;6.968;2023-07-08T09:26:56;24.60;99.90
56725;DHT22;42608;52.776;6.968;2023-07-08T09:29:25;24.60;99.90
56725;DHT22;42608;52.776;6.968;2023-07-08T09:31:50;24.70;99.90
56725;DHT22;42608;52.776;6.968;2023-07-08T09:34:21;24.70;99.90
56725;DHT22;42608;52.776;6.968;2023-07-08T09:36:48;24.80;99.90
56725;DHT22;42608;52.776;6.968;2023-07-08T09:39:17;24.90;99.90
56725;DHT22;42608;52.776;6.968;2023-07-08T09:41:44;25.00;99.90
56725;DHT22;42608;52.776;6.968;2023-07-08T09:46:39;25.10;99.90
56725;DHT22;42608;52.776;6.968;2023-07-08T09:49:27;25.20;99.80
56725;DHT22;42608;52.776;6.968;2023-07-08T09:51:51;25.30;99.60
56725;DHT22;42608;52.776;6.968;2023-07-08T09:54:17;25.30;98.70
56725;DHT22;42608;52.776;6.968;2023-07-08T09:56:52;25.40;98.10
56725;DHT22;42608;52.776;6.968;2023-07-08T09:59:19;25.40;98.80
56725;DHT22;42608;52.776;6.968;2023-07-08T10:01:47;25.50;98.70
56725;DHT22;42608;52.776;6.968;2023-07-08T10:04:12;25.50;99.50
56725;DHT22;42608;52.776;6.968;2023-07-08T10:06:38;25.70;99.70
56725;DHT22;42608;52.776;6.968;2023-07-08T10:09:11;25.80;99.90
56725;DHT22;42608;52.776;6.968;2023-07-08T10:11:44;25.90;98.60
56725;DHT22;42608;52.776;6.968;2023-07-08T10:14:12;25.90;97.70
56725;DHT22;42608;52.776;6.968;2023-07-08T10:16:43;26.00;97.50
56725;DHT22;42608;52.776;6.968;2023-07-08T10:19:12;26.10;97.10
56725;DHT22;42608;52.776;6.968;2023-07-08T10:29:42;26.40;95.60
56725;DHT22;42608;52.776;6.968;2023-07-08T10:42:30;26.80;93.70
56725;DHT22;42608;52.776;6.968;2023-07-08T10:47:53;26.90;93.90
56725;DHT22;42608;52.776;6.968;2023-07-08T11:00:46;27.30;92.90
56725;DHT22;42608;52.776;6.968;2023-07-08T11:05:44;27.50;90.90
56725;DHT22;42608;52.776;6.968;2023-07-08T11:10:42;27.60;88.10
56725;DHT22;42608;52.776;6.968;2023-07-08T11:13:12;27.70;87.00
56725;DHT22;42608;52.776;6.968;2023-07-08T11:16:01;27.80;87.70
56725;DHT22;42608;52.776;6.968;2023-07-08T11:18:47;27.80;87.80
56725;DHT22;42608;52.776;6.968;2023-07-08T11:21:27;27.90;85.90
56725;DHT22;42608;52.776;6.968;2023-07-08T11:23:56;27.90;85.30
56725;DHT22;42608;52.776;6.968;2023-07-08T11:26:37;28.00;85.70
56725;DHT22;42608;52.776;6.968;2023-07-08T11:29:05;28.10;84.00
56725;DHT22;42608;52.776;6.968;2023-07-08T11:31:39;28.20;83.90
56725;DHT22;42608;52.776;6.968;2023-07-08T11:34:05;28.20;83.20
56725;DHT22;42608;52.776;6.968;2023-07-08T11:36:30;28.20;82.40
56725;DHT22;42608;52.776;6.968;2023-07-08T11:38:58;28.30;83.20
56725;DHT22;42608;52.776;6.968;2023-07-08T11:41:26;28.40;81.70
56725;DHT22;42608;52.776;6.968;2023-07-08T11:44:02;28.50;80.90
56725;DHT22;42608;52.776;6.968;2023-07-08T11:46:33;28.60;78.70
56725;DHT22;42608;52.776;6.968;2023-07-08T11:49:04;28.60;79.30
56725;DHT22;42608;52.776;6.968;2023-07-08T11:51:34;28.70;79.80
56725;DHT22;42608;52.776;6.968;2023-07-08T11:56:29;28.80;79.00
56725;DHT22;42608;52.776;6.968;2023-07-08T11:59:12;28.90;80.00
56725;DHT22;42608;52.776;6.968;2023-07-08T12:02:01;28.90;78.60
56725;DHT22;42608;52.776;6.968;2023-07-08T12:04:35;28.90;77.80
56725;DHT22;42608;52.776;6.968;2023-07-08T12:07:16;29.00;78.50
56725;DHT22;42608;52.776;6.968;2023-07-08T12:09:57;29.10;79.10
56725;DHT22;42608;52.776;6.968;2023-07-08T12:12:30;29.10;78.00
56725;DHT22;42608;52.776;6.968;2023-07-08T12:15:04;29.20;77.50
56725;DHT22;42608;52.776;6.968;2023-07-08T12:17:30;29.20;76.40
56725;DHT22;42608;52.776;6.968;2023-07-08T12:19:55;29.40;75.70
56725;DHT22;42608;52.776;6.968;2023-07-08T12:22:23;29.50;75.10
56725;DHT22;42608;52.776;6.968;2023-07-08T12:24:48;29.50;74.60
56725;DHT22;42608;52.776;6.968;2023-07-08T12:27:14;29.60;74.80
56725;DHT22;42608;52.776;6.968;2023-07-08T12:29:40;29.70;74.10
56725;DHT22;42608;52.776;6.968;2023-07-08T12:32:05;29.80;74.90
56725;DHT22;42608;52.776;6.968;2023-07-08T12:34:31;29.90;73.70
56725;DHT22;42608;52.776;6.968;2023-07-08T12:36:57;30.00;73.90
56725;DHT22;42608;52.776;6.968;2023-07-08T12:39:23;30.10;74.00
56725;DHT22;42608;52.776;6.968;2023-07-08T12:41:48;30.20;73.60
56725;DHT22;42608;52.776;6.968;2023-07-08T12:44:19;30.30;72.60
56725;DHT22;42608;52.776;6.968;2023-07-08T12:46:46;30.40;71.90
56725;DHT22;42608;52.776;6.968;2023-07-08T12:49:14;30.50;71.80
56725;DHT22;42608;52.776;6.968;2023-07-08T12:51:41;30.70;71.00
56725;DHT22;42608;52.776;6.968;2023-07-08T12:54:08;30.70;69.10
56725;DHT22;42608;52.776;6.968;2023-07-08T12:56:34;30.80;68.80
56725;DHT22;42608;52.776;6.968;2023-07-08T12:59:00;30.80;68.90
56725;DHT22;42608;52.776;6.968;2023-07-08T13:01:26;30.90;67.20
56725;DHT22;42608;52.776;6.968;2023-07-08T13:03:54;31.10;66.30
56725;DHT22;42608;52.776;6.968;2023-07-08T13:06:23;31.20;65.10
56725;DHT22;42608;52.776;6.968;2023-07-08T13:08:50;31.30;65.00
56725;DHT22;42608;52.776;6.968;2023-07-08T13:11:16;31.40;65.80
56725;DHT22;42608;52.776;6.968;2023-07-08T13:13:47;31.50;64.50
56725;DHT22;42608;52.776;6.968;2023-07-08T13:16:13;31.60;63.50
56725;DHT22;42608;52.776;6.968;2023-07-08T13:18:40;31.60;63.00
56725;DHT22;42608;52.776;6.968;2023-07-08T13:21:06;31.70;62.50
56725;DHT22;42608;52.776;6.968;2023-07-08T13:23:32;31.80;62.60
56725;DHT22;42608;52.776;6.968;2023-07-08T13:25:59;31.90;59.80
56725;DHT22;42608;52.776;6.968;2023-07-08T13:28:26;32.00;59.30
56725;DHT22;42608;52.776;6.968;2023-07-08T13:31:01;32.10;59.10
56725;DHT22;42608;52.776;6.968;2023-07-08T13:33:31;32.30;58.50
56725;DHT22;42608;52.776;6.968;2023-07-08T13:35:57;32.40;58.30
56725;DHT22;42608;52.776;6.968;2023-07-08T13:38:24;32.50;57.80
56725;DHT22;42608;52.776;6.968;2023-07-08T13:40:54;32.50;56.50
56725;DHT22;42608;52.776;6.968;2023-07-08T13:43:28;32.60;56.10
56725;DHT22;42608;52.776;6.968;2023-07-08T13:45:55;32.70;55.90
56725;DHT22;42608;52.776;6.968;2023-07-08T13:48:22;32.80;55.20
56725;DHT22;42608;52.776;6.968;2023-07-08T13:50:50;32.90;54.60
56725;DHT22;42608;52.776;6.968;2023-07-08T13:53:18;33.00;54.80
56725;DHT22;42608;52.776;6.968;2023-07-08T13:55:44;33.10;55.30
56725;DHT22;42608;52.776;6.968;2023-07-08T13:58:13;33.20;55.60
56725;DHT22;42608;52.776;6.968;2023-07-08T14:00:39;33.30;55.40
56725;DHT22;42608;52.776;6.968;2023-07-08T14:03:07;33.40;54.50
56725;DHT22;42608;52.776;6.968;2023-07-08T14:05:36;33.40;53.60
56725;DHT22;42608;52.776;6.968;2023-07-08T14:08:01;33.50;54.30
56725;DHT22;42608;52.776;6.968;2023-07-08T14:10:27;33.40;53.20
56725;DHT22;42608;52.776;6.968;2023-07-08T14:13:01;33.50;52.90
56725;DHT22;42608;52.776;6.968;2023-07-08T14:15:27;33.60;53.20
56725;DHT22;42608;52.776;6.968;2023-07-08T14:17:53;33.70;54.00
56725;DHT22;42608;52.776;6.968;2023-07-08T14:20:19;33.80;53.70
56725;DHT22;42608;52.776;6.968;2023-07-08T14:22:46;33.80;51.70
56725;DHT22;42608;52.776;6.968;2023-07-08T14:25:13;33.90;52.30
56725;DHT22;42608;52.776;6.968;2023-07-08T14:27:39;34.00;52.70
56725;DHT22;42608;52.776;6.968;2023-07-08T14:30:08;34.00;52.20
56725;DHT22;42608;52.776;6.968;2023-07-08T14:32:34;34.00;51.50
56725;DHT22;42608;52.776;6.968;2023-07-08T14:35:08;34.00;52.80
56725;DHT22;42608;52.776;6.968;2023-07-08T14:37:36;34.00;53.80
56725;DHT22;42608;52.776;6.968;2023-07-08T14:40:10;34.00;52.30
56725;DHT22;42608;52.776;6.968;2023-07-08T14:42:38;34.10;53.30
56725;DHT22;42608;52.776;6.968;2023-07-08T14:45:04;34.00;52.50
56725;DHT22;42608;52.776;6.968;2023-07-08T14:47:30;34.10;52.20
56725;DHT22;42608;52.776;6.968;2023-07-08T14:49:55;34.10;51.80
56725;DHT22;42608;52.776;6.968;2023-07-08T14:52:27;34.10;51.00
56725;DHT22;42608;52.776;6.968;2023-07-08T14:54:53;34.00;51.00
56725;DHT22;42608;52.776;6.968;2023-07-08T14:57:18;34.00;51.00
56725;DHT22;42608;52.776;6.968;2023-07-08T14:59:44;34.00;51.60
56725;DHT22;42608;52.776;6.968;2023-07-08T15:02:20;33.90;51.10
56725;DHT22;42608;52.776;6.968;2023-07-08T15:04:46;33.90;51.50
56725;DHT22;42608;52.776;6.968;2023-07-08T15:07:12;33.90;51.70
56725;DHT22;42608;52.776;6.968;2023-07-08T15:09:37;33.80;52.20
56725;DHT22;42608;52.776;6.968;2023-07-08T15:12:03;33.90;52.10
56725;DHT22;42608;52.776;6.968;2023-07-08T15:14:29;33.90;51.50
56725;DHT22;42608;52.776;6.968;2023-07-08T15:16:57;33.90;50.70
56725;DHT22;42608;52.776;6.968;2023-07-08T15:19:23;33.80;50.50
56725;DHT22;42608;52.776;6.968;2023-07-08T15:21:49;33.80;50.90
56725;DHT22;42608;52.776;6.968;2023-07-08T15:24:15;33.90;51.20
56725;DHT22;42608;52.776;6.968;2023-07-08T15:26:41;33.90;51.00
56725;DHT22;42608;52.776;6.968;2023-07-08T15:29:18;34.00;50.90
56725;DHT22;42608;52.776;6.968;2023-07-08T15:31:44;34.10;50.10
56725;DHT22;42608;52.776;6.968;2023-07-08T15:34:20;34.20;49.90
56725;DHT22;42608;52.776;6.968;2023-07-08T15:36:49;34.30;50.10
56725;DHT22;42608;52.776;6.968;2023-07-08T15:39:15;34.30;50.70
56725;DHT22;42608;52.776;6.968;2023-07-08T15:41:41;34.30;50.00
56725;DHT22;42608;52.776;6.968;2023-07-08T15:44:18;34.20;50.40
56725;DHT22;42608;52.776;6.968;2023-07-08T15:46:45;34.20;50.30
56725;DHT22;42608;52.776;6.968;2023-07-08T15:51:40;34.00;49.80
56725;DHT22;42608;52.776;6.968;2023-07-08T15:54:05;33.90;49.30
56725;DHT22;42608;52.776;6.968;2023-07-08T15:56:31;33.90;50.50
56725;DHT22;42608;52.776;6.968;2023-07-08T15:58:56;33.90;51.30
56725;DHT22;42608;52.776;6.968;2023-07-08T16:01:22;33.90;51.60
56725;DHT22;42608;52.776;6.968;2023-07-08T16:03:49;33.90;50.00
56725;DHT22;42608;52.776;6.968;2023-07-08T16:06:18;33.90;50.00
56725;DHT22;42608;52.776;6.968;2023-07-08T16:08:44;33.80;50.30
56725;DHT22;42608;52.776;6.968;2023-07-08T16:11:17;33.80;50.60
56725;DHT22;42608;52.776;6.968;2023-07-08T16:13:44;33.80;50.10
56725;DHT22;42608;52.776;6.968;2023-07-08T16:16:10;33.80;49.60
56725;DHT22;42608;52.776;6.968;2023-07-08T16:18:36;33.80;49.90
56725;DHT22;42608;52.776;6.968;2023-07-08T16:21:02;33.80;49.70
56725;DHT22;42608;52.776;6.968;2023-07-08T16:23:28;33.80;48.60
56725;DHT22;42608;52.776;6.968;2023-07-08T16:25:54;33.80;49.10
56725;DHT22;42608;52.776;6.968;2023-07-08T16:28:38;33.80;50.10
56725;DHT22;42608;52.776;6.968;2023-07-08T16:31:11;33.80;51.10
56725;DHT22;42608;52.776;6.968;2023-07-08T16:33:37;33.80;51.00
56725;DHT22;42608;52.776;6.968;2023-07-08T16:36:03;33.80;50.20
56725;DHT22;42608;52.776;6.968;2023-07-08T16:38:28;33.90;49.70
56725;DHT22;42608;52.776;6.968;2023-07-08T16:40:54;34.00;49.00